Time;durP1;ratioP1;P1;durP2;ratioP2;P2;SDS_P1;SDS_P2;PMS_P1;PMS_P2;Temp;Humidity;BMP_temperature;BMP_pressure;BME280_temperature;BME280_humidity;BME280_pressure;Samples;Min_cycle;Max_cycle;Signal;HPM_P1;HPM_P2
2022/04/09 00:00:18;;;;;;;7.60;2.38;;;;;;;;;;5054241;28;20080;-66
2022/04/09 00:02:44;;;;;;;6.70;2.30;;;;;;;;;;5054378;28;20028;-64
2022/04/09 00:05:12;;;;;;;4.28;2.00;;;;;;;;;;5054254;28;20036;-68
2022/04/09 00:07:39;;;;;;;6.47;2.20;;;;;;;;;;5054225;28;20071;-66
2022/04/09 00:10:07;;;;;;;5.20;2.35;;;;;;;;;;5054519;28;20388;-67
2022/04/09 00:12:32;;;;;;;6.72;2.20;;;;;;;;;;5054467;28;20426;-69
2022/04/09 00:14:58;;;;;;;8.60;2.05;;;;;;;;;;5071465;28;20136;-67
2022/04/09 00:17:24;;;;;;;4.32;2.03;;;;;;;;;;5074823;28;20108;-68
2022/04/09 00:19:52;;;;;;;6.72;2.28;;;;;;;;;;5074864;28;20058;-64
2022/04/09 00:22:19;;;;;;;4.78;2.15;;;;;;;;;;5074681;28;20029;-65
2022/04/09 00:24:45;;;;;;;8.48;2.13;;;;;;;;;;5074665;28;20403;-65
2022/04/09 00:27:12;;;;;;;8.70;3.15;;;;;;;;;;5074352;28;20023;-65
2022/04/09 00:29:38;;;;;;;16.13;6.75;;;;;;;;;;5074535;28;20063;-65
2022/04/09 00:32:04;;;;;;;12.10;5.38;;;;;;;;;;5074452;28;20021;-69
2022/04/09 00:34:30;;;;;;;23.15;8.57;;;;;;;;;;5074813;28;20041;-65
2022/04/09 00:36:56;;;;;;;11.75;4.40;;;;;;;;;;5074133;28;20379;-66
2022/04/09 00:39:24;;;;;;;9.93;3.95;;;;;;;;;;5074204;28;20043;-67
2022/04/09 00:41:50;;;;;;;7.88;3.13;;;;;;;;;;5074256;28;20039;-67
2022/04/09 00:44:17;;;;;;;8.30;3.05;;;;;;;;;;5073206;28;20040;-64
2022/04/09 00:46:44;;;;;;;7.85;2.67;;;;;;;;;;5072820;28;20031;-65
2022/04/09 00:49:11;;;;;;;6.60;2.20;;;;;;;;;;5074268;28;20056;-67
2022/04/09 00:51:40;;;;;;;4.72;2.10;;;;;;;;;;5073048;28;20020;-65
2022/04/09 00:54:06;;;;;;;5.05;2.22;;;;;;;;;;5074490;28;20048;-64
2022/04/09 00:56:33;;;;;;;9.45;2.55;;;;;;;;;;5074495;28;20043;-69
2022/04/09 00:59:02;;;;;;;5.00;2.55;;;;;;;;;;5072745;28;20028;-66
2022/04/09 01:01:32;;;;;;;5.30;1.90;;;;;;;;;;5073957;28;20025;-67
2022/04/09 01:03:58;;;;;;;3.65;1.50;;;;;;;;;;5073474;28;20032;-72
2022/04/09 01:06:24;;;;;;;5.00;2.00;;;;;;;;;;5073393;28;20463;-70
2022/04/09 01:08:50;;;;;;;7.78;2.67;;;;;;;;;;5072016;28;20036;-71
2022/04/09 01:11:16;;;;;;;4.00;1.50;;;;;;;;;;5072279;28;20025;-68
2022/04/09 01:13:46;;;;;;;4.32;1.70;;;;;;;;;;5072495;28;20094;-67
2022/04/09 01:16:13;;;;;;;4.72;2.03;;;;;;;;;;5072417;28;20123;-72
2022/04/09 01:18:41;;;;;;;2.70;1.55;;;;;;;;;;5072425;28;20399;-72
2022/04/09 01:21:09;;;;;;;4.88;1.98;;;;;;;;;;5072569;28;20035;-71
2022/04/09 01:23:36;;;;;;;6.25;1.88;;;;;;;;;;5073547;28;20475;-70
2022/04/09 01:26:04;;;;;;;4.45;2.00;;;;;;;;;;5071993;28;20033;-66
2022/04/09 01:28:31;;;;;;;6.78;1.85;;;;;;;;;;5072184;28;20029;-66
2022/04/09 01:30:58;;;;;;;4.95;1.58;;;;;;;;;;5072270;28;20029;-67
2022/04/09 01:33:24;;;;;;;3.90;1.55;;;;;;;;;;5073165;28;20138;-66
2022/04/09 01:35:50;;;;;;;3.78;1.52;;;;;;;;;;5072862;28;20036;-68
2022/04/09 01:38:18;;;;;;;5.63;2.05;;;;;;;;;;5071717;28;20031;-69
2022/04/09 01:40:45;;;;;;;4.45;1.65;;;;;;;;;;5071617;28;20037;-66
2022/04/09 01:43:11;;;;;;;3.92;1.95;;;;;;;;;;5071482;28;20035;-71
2022/04/09 01:45:37;;;;;;;5.32;2.30;;;;;;;;;;5071354;28;20037;-70
2022/04/09 01:48:09;;;;;;;4.63;1.92;;;;;;;;;;5071341;28;20098;-71
2022/04/09 01:50:35;;;;;;;3.45;1.67;;;;;;;;;;5071372;28;20067;-71
2022/04/09 01:53:01;;;;;;;5.10;1.60;;;;;;;;;;5071428;28;20041;-65
2022/04/09 01:55:27;;;;;;;4.78;1.73;;;;;;;;;;5072459;28;20069;-67
2022/04/09 01:57:54;;;;;;;4.25;1.70;;;;;;;;;;5070967;28;20033;-66
2022/04/09 02:00:24;;;;;;;5.25;1.60;;;;;;;;;;5071354;28;20043;-66
2022/04/09 02:02:52;;;;;;;4.07;1.40;;;;;;;;;;5055215;28;20041;-65
2022/04/09 02:05:18;;;;;;;5.78;2.00;;;;;;;;;;5073214;28;20082;-65
2022/04/09 02:07:47;;;;;;;3.83;1.63;;;;;;;;;;5071992;28;20063;-67
2022/04/09 02:10:15;;;;;;;5.40;1.75;;;;;;;;;;5071366;28;20024;-66
2022/04/09 02:12:43;;;;;;;8.13;2.08;;;;;;;;;;5071184;28;20395;-64
2022/04/09 02:15:12;;;;;;;4.30;1.90;;;;;;;;;;5072359;28;20089;-64
2022/04/09 02:17:40;;;;;;;7.45;1.77;;;;;;;;;;5071156;28;20033;-67
2022/04/09 02:20:07;;;;;;;12.23;2.80;;;;;;;;;;5071792;28;20060;-65
2022/04/09 02:22:42;;;;;;;8.85;2.53;;;;;;;;;;5071880;28;20077;-66
2022/04/09 02:25:11;;;;;;;5.25;1.73;;;;;;;;;;5053954;28;20499;-65
2022/04/09 02:27:37;;;;;;;4.15;1.67;;;;;;;;;;5070916;28;20039;-66
2022/04/09 02:30:07;;;;;;;4.50;2.00;;;;;;;;;;5071456;28;20365;-66
2022/04/09 02:32:52;;;;;;;6.25;1.63;;;;;;;;;;5070945;28;20109;-66
2022/04/09 02:35:25;;;;;;;4.60;1.90;;;;;;;;;;5070789;28;20074;-66
2022/04/09 02:37:51;;;;;;;5.40;1.70;;;;;;;;;;5071127;28;20036;-66
2022/04/09 02:40:18;;;;;;;7.90;1.55;;;;;;;;;;5071127;28;20028;-70
2022/04/09 02:42:46;;;;;;;5.22;1.58;;;;;;;;;;5070773;28;20036;-65
2022/04/09 02:45:12;;;;;;;7.95;1.65;;;;;;;;;;5070600;28;20040;-68
2022/04/09 02:47:39;;;;;;;6.47;2.03;;;;;;;;;;5070463;28;20398;-70
2022/04/09 02:50:10;;;;;;;5.35;2.20;;;;;;;;;;5056987;28;20498;-65
2022/04/09 02:52:37;;;;;;;4.70;1.30;;;;;;;;;;5031907;28;20045;-66
2022/04/09 02:55:05;;;;;;;3.10;1.20;;;;;;;;;;5014146;28;20488;-64
2022/04/09 02:57:34;;;;;;;5.88;1.95;;;;;;;;;;5030780;28;20044;-67
2022/04/09 03:00:02;;;;;;;6.50;1.92;;;;;;;;;;5030718;28;20072;-67
2022/04/09 03:02:28;;;;;;;5.35;1.85;;;;;;;;;;5032114;28;20037;-69
2022/04/09 03:04:55;;;;;;;5.43;2.10;;;;;;;;;;5030655;28;20021;-69
2022/04/09 03:07:23;;;;;;;3.80;1.92;;;;;;;;;;5031917;28;20026;-70
2022/04/09 03:09:49;;;;;;;5.65;1.98;;;;;;;;;;5030513;28;20539;-68
2022/04/09 03:12:15;;;;;;;5.85;1.50;;;;;;;;;;5032003;28;20125;-68
2022/04/09 03:14:44;;;;;;;5.15;2.30;;;;;;;;;;5031707;28;20416;-67
2022/04/09 03:17:11;;;;;;;7.85;1.70;;;;;;;;;;5030362;28;20665;-67
2022/04/09 03:19:37;;;;;;;6.32;2.05;;;;;;;;;;5030414;28;20091;-65
2022/04/09 03:22:04;;;;;;;5.03;1.60;;;;;;;;;;5030546;28;20133;-70
2022/04/09 03:24:30;;;;;;;7.70;2.30;;;;;;;;;;5030293;28;20061;-70
2022/04/09 03:26:56;;;;;;;6.88;2.40;;;;;;;;;;5030531;28;20039;-67
2022/04/09 03:29:23;;;;;;;7.35;2.40;;;;;;;;;;5030504;28;20109;-71
2022/04/09 03:31:49;;;;;;;6.68;2.08;;;;;;;;;;5032805;28;20052;-66
2022/04/09 03:34:15;;;;;;;6.63;2.17;;;;;;;;;;5035410;28;20061;-71
2022/04/09 03:36:42;;;;;;;7.18;2.20;;;;;;;;;;5034141;28;20029;-70
2022/04/09 03:39:09;;;;;;;4.60;1.70;;;;;;;;;;5034008;28;20037;-69
2022/04/09 03:41:36;;;;;;;9.65;2.20;;;;;;;;;;5034079;28;20030;-65
2022/04/09 03:44:05;;;;;;;7.60;2.45;;;;;;;;;;5033987;28;20033;-69
2022/04/09 03:46:35;;;;;;;6.68;2.65;;;;;;;;;;5033903;28;20034;-66
2022/04/09 03:49:06;;;;;;;4.25;2.72;;;;;;;;;;5033165;28;20032;-63
2022/04/09 03:51:35;;;;;;;11.07;2.78;;;;;;;;;;5050206;28;20044;-66
2022/04/09 03:54:02;;;;;;;7.32;2.55;;;;;;;;;;5053659;28;20087;-67
2022/04/09 03:56:29;;;;;;;6.38;2.15;;;;;;;;;;5053831;28;20035;-66
2022/04/09 03:58:55;;;;;;;5.53;1.92;;;;;;;;;;5053958;28;20110;-67
2022/04/09 04:01:24;;;;;;;4.78;1.45;;;;;;;;;;5053709;28;20032;-68
2022/04/09 04:03:52;;;;;;;11.68;2.13;;;;;;;;;;5053881;28;20031;-66
2022/04/09 04:06:20;;;;;;;11.00;2.15;;;;;;;;;;5053635;28;20055;-69
2022/04/09 04:08:47;;;;;;;17.95;3.22;;;;;;;;;;5053157;28;20116;-64
2022/04/09 04:11:17;;;;;;;6.15;1.95;;;;;;;;;;5053332;28;20033;-66
2022/04/09 04:13:43;;;;;;;7.13;1.80;;;;;;;;;;5053294;28;20055;-67
2022/04/09 04:16:11;;;;;;;6.07;2.10;;;;;;;;;;5052683;28;20151;-65
2022/04/09 04:18:41;;;;;;;2.75;1.50;;;;;;;;;;5053511;28;20021;-67
2022/04/09 04:21:08;;;;;;;7.40;2.05;;;;;;;;;;5038062;28;20136;-65
2022/04/09 04:23:35;;;;;;;13.90;3.10;;;;;;;;;;5035220;28;20026;-69
2022/04/09 04:26:09;;;;;;;8.95;2.72;;;;;;;;;;5032950;28;20063;-65
2022/04/09 04:28:36;;;;;;;7.72;2.40;;;;;;;;;;5037986;28;20033;-65
2022/04/09 04:31:04;;;;;;;5.68;2.17;;;;;;;;;;5031943;28;20472;-64
2022/04/09 04:33:32;;;;;;;11.80;2.70;;;;;;;;;;5041420;28;20392;-64
2022/04/09 04:35:58;;;;;;;10.20;2.88;;;;;;;;;;5034041;28;20056;-66
2022/04/09 04:38:28;;;;;;;9.43;1.80;;;;;;;;;;5049373;28;20038;-68
2022/04/09 04:40:56;;;;;;;8.90;2.20;;;;;;;;;;5034729;28;20038;-70
2022/04/09 04:43:24;;;;;;;5.22;1.77;;;;;;;;;;5034375;28;20040;-71
2022/04/09 04:45:51;;;;;;;7.10;2.22;;;;;;;;;;5036453;28;20107;-69
2022/04/09 04:48:20;;;;;;;6.80;3.00;;;;;;;;;;5037917;28;20040;-69
2022/04/09 04:50:47;;;;;;;12.63;3.88;;;;;;;;;;5048839;28;20476;-67
2022/04/09 04:53:14;;;;;;;12.38;3.05;;;;;;;;;;5050387;28;20395;-68
2022/04/09 04:55:45;;;;;;;10.70;3.50;;;;;;;;;;5033627;28;20138;-69
2022/04/09 04:58:11;;;;;;;6.43;2.65;;;;;;;;;;5044197;28;20029;-71
2022/04/09 05:00:50;;;;;;;6.38;1.95;;;;;;;;;;5069971;28;20203;-67
2022/04/09 05:03:18;;;;;;;6.50;2.38;;;;;;;;;;5070084;28;20047;-69
2022/04/09 05:06:06;;;;;;;6.93;2.30;;;;;;;;;;5051678;28;20044;-69
2022/04/09 05:08:34;;;;;;;13.00;3.78;;;;;;;;;;5070200;28;20083;-69
2022/04/09 05:11:01;;;;;;;15.10;2.95;;;;;;;;;;5070394;28;20028;-73
2022/04/09 05:13:31;;;;;;;7.30;2.30;;;;;;;;;;5070252;28;20158;-74
2022/04/09 05:15:58;;;;;;;4.90;2.17;;;;;;;;;;5069702;28;20040;-72
2022/04/09 05:18:26;;;;;;;7.80;2.00;;;;;;;;;;5053012;28;20032;-71
2022/04/09 05:20:53;;;;;;;6.53;2.63;;;;;;;;;;5053216;28;20061;-74
2022/04/09 05:23:20;;;;;;;5.97;2.55;;;;;;;;;;5066328;28;20111;-75
2022/04/09 05:25:46;;;;;;;10.68;2.90;;;;;;;;;;5039249;28;20461;-72
2022/04/09 05:28:13;;;;;;;7.82;2.50;;;;;;;;;;5032433;28;20088;-72
2022/04/09 05:30:45;;;;;;;7.57;2.65;;;;;;;;;;5032535;28;20017;-73
2022/04/09 05:33:12;;;;;;;12.68;3.35;;;;;;;;;;5033205;28;20052;-69
2022/04/09 05:35:43;;;;;;;7.45;3.05;;;;;;;;;;5033111;28;20036;-70
2022/04/09 05:38:09;;;;;;;6.68;1.88;;;;;;;;;;5034748;28;20041;-70
2022/04/09 05:40:37;;;;;;;6.85;2.40;;;;;;;;;;5051044;28;20033;-69
2022/04/09 05:43:12;;;;;;;9.02;2.53;;;;;;;;;;5069280;28;20033;-68
2022/04/09 05:45:40;;;;;;;9.02;2.60;;;;;;;;;;5052257;28;20071;-71
2022/04/09 05:48:06;;;;;;;6.60;2.70;;;;;;;;;;5064823;28;20424;-70
2022/04/09 05:50:44;;;;;;;5.68;2.65;;;;;;;;;;5065920;28;20105;-69
2022/04/09 05:53:10;;;;;;;15.43;2.88;;;;;;;;;;5051877;28;20037;-70
2022/04/09 05:55:36;;;;;;;5.25;2.10;;;;;;;;;;5051258;28;20128;-69
2022/04/09 05:58:02;;;;;;;9.48;2.85;;;;;;;;;;5052464;28;20044;-70
2022/04/09 06:00:32;;;;;;;7.03;3.40;;;;;;;;;;5061523;28;20029;-69
2022/04/09 06:03:17;;;;;;;13.35;3.42;;;;;;;;;;5032390;28;20065;-70
2022/04/09 06:05:44;;;;;;;9.18;3.38;;;;;;;;;;5056688;28;20404;-70
2022/04/09 06:08:32;;;;;;;13.13;3.15;;;;;;;;;;5052326;28;20037;-70
2022/04/09 06:11:01;;;;;;;10.68;2.50;;;;;;;;;;5051293;28;20044;-69
2022/04/09 06:13:27;;;;;;;4.82;2.60;;;;;;;;;;5051576;28;20080;-70
2022/04/09 06:15:53;;;;;;;11.75;4.00;;;;;;;;;;5051393;28;20044;-69
2022/04/09 06:18:23;;;;;;;7.85;3.20;;;;;;;;;;5050292;28;20031;-69
2022/04/09 06:20:49;;;;;;;10.98;3.00;;;;;;;;;;5067858;28;20037;-69
2022/04/09 06:23:17;;;;;;;7.72;3.08;;;;;;;;;;5045699;28;20469;-69
2022/04/09 06:25:43;;;;;;;5.18;2.42;;;;;;;;;;5046108;28;20045;-70
2022/04/09 06:28:12;;;;;;;10.65;3.10;;;;;;;;;;5031614;28;20411;-70
2022/04/09 06:30:41;;;;;;;13.50;3.08;;;;;;;;;;5045442;28;20033;-71
2022/04/09 06:33:16;;;;;;;9.82;2.85;;;;;;;;;;5049650;28;20341;-71
2022/04/09 06:35:43;;;;;;;13.57;3.10;;;;;;;;;;5052574;28;20044;-70
2022/04/09 06:38:14;;;;;;;5.13;2.42;;;;;;;;;;5050952;28;20035;-69
2022/04/09 06:40:41;;;;;;;9.18;2.70;;;;;;;;;;5047363;28;20073;-70
2022/04/09 06:43:07;;;;;;;6.88;2.13;;;;;;;;;;5031060;28;20030;-70
2022/04/09 06:45:39;;;;;;;7.45;2.42;;;;;;;;;;5032164;28;20435;-69
2022/04/09 06:48:31;;;;;;;10.00;2.83;;;;;;;;;;5025101;28;20067;-69
2022/04/09 06:51:26;;;;;;;12.27;2.55;;;;;;;;;;5022840;28;20083;-69
2022/04/09 06:53:59;;;;;;;7.47;2.67;;;;;;;;;;5030716;28;20099;-68
2022/04/09 06:56:25;;;;;;;11.23;3.72;;;;;;;;;;5035847;28;20036;-69
2022/04/09 06:58:51;;;;;;;10.10;3.05;;;;;;;;;;5050613;28;20037;-68
2022/04/09 07:01:18;;;;;;;11.48;2.90;;;;;;;;;;5034270;28;20600;-73
2022/04/09 07:03:45;;;;;;;7.55;2.17;;;;;;;;;;5050891;28;20025;-70
2022/04/09 07:06:13;;;;;;;8.75;2.47;;;;;;;;;;5051305;28;20107;-70
2022/04/09 07:08:39;;;;;;;5.13;2.00;;;;;;;;;;5051648;28;20029;-71
2022/04/09 07:11:05;;;;;;;6.38;2.50;;;;;;;;;;5052199;28;20033;-71
2022/04/09 07:13:31;;;;;;;8.73;1.98;;;;;;;;;;5052008;28;20025;-69
2022/04/09 07:15:57;;;;;;;7.75;2.40;;;;;;;;;;5049728;28;20535;-71
2022/04/09 07:18:23;;;;;;;10.07;2.22;;;;;;;;;;5051914;28;20021;-70
2022/04/09 07:20:49;;;;;;;6.72;2.58;;;;;;;;;;5051708;28;20108;-73
2022/04/09 07:23:15;;;;;;;7.55;3.08;;;;;;;;;;5052145;28;20115;-70
2022/04/09 07:25:42;;;;;;;10.35;2.50;;;;;;;;;;5051997;28;20521;-71
2022/04/09 07:28:09;;;;;;;9.75;2.42;;;;;;;;;;5051565;28;20036;-75
2022/04/09 07:30:35;;;;;;;7.57;2.47;;;;;;;;;;5051707;28;20040;-70
2022/04/09 07:33:01;;;;;;;10.82;3.15;;;;;;;;;;5052021;28;20357;-74
2022/04/09 07:35:27;;;;;;;9.68;3.15;;;;;;;;;;5051600;28;20051;-72
2022/04/09 07:37:55;;;;;;;8.82;2.80;;;;;;;;;;5051645;28;20029;-73
2022/04/09 07:40:24;;;;;;;9.05;2.70;;;;;;;;;;5050166;28;20040;-73
2022/04/09 07:42:51;;;;;;;7.70;2.30;;;;;;;;;;5051923;28;20031;-72
2022/04/09 07:45:17;;;;;;;7.28;2.30;;;;;;;;;;5048174;28;20044;-69
2022/04/09 07:47:44;;;;;;;6.93;2.00;;;;;;;;;;5050909;28;20530;-72
2022/04/09 07:50:11;;;;;;;4.43;1.90;;;;;;;;;;5050628;28;20033;-76
2022/04/09 07:52:39;;;;;;;11.25;3.00;;;;;;;;;;5050356;28;20044;-73
2022/04/09 07:55:08;;;;;;;6.00;2.15;;;;;;;;;;5032830;28;20037;-70
2022/04/09 07:57:34;;;;;;;8.85;2.67;;;;;;;;;;5049192;28;20045;-68
2022/04/09 08:00:00;;;;;;;7.40;2.20;;;;;;;;;;5050723;28;20040;-70
2022/04/09 08:02:25;;;;;;;103.03;7.93;;;;;;;;;;5050433;28;20021;-67
2022/04/09 08:04:52;;;;;;;7.38;2.47;;;;;;;;;;5049509;28;20425;-66
2022/04/09 08:07:17;;;;;;;8.65;2.40;;;;;;;;;;5040295;28;20483;-68
2022/04/09 08:09:46;;;;;;;5.97;2.10;;;;;;;;;;5030332;28;20083;-69
2022/04/09 08:12:12;;;;;;;7.85;2.15;;;;;;;;;;5030479;28;20029;-71
2022/04/09 08:14:39;;;;;;;4.88;1.85;;;;;;;;;;5030014;28;20080;-69
2022/04/09 08:17:05;;;;;;;5.47;1.55;;;;;;;;;;5030317;28;20033;-72
2022/04/09 08:19:31;;;;;;;5.40;1.58;;;;;;;;;;5033267;28;20109;-71
2022/04/09 08:21:59;;;;;;;7.80;2.88;;;;;;;;;;5033870;28;20086;-71
2022/04/09 08:24:25;;;;;;;5.70;2.05;;;;;;;;;;5033261;28;20133;-73
2022/04/09 08:26:50;;;;;;;6.88;1.80;;;;;;;;;;5035881;28;20108;-70
2022/04/09 08:29:19;;;;;;;6.97;1.27;;;;;;;;;;5053861;28;20041;-73
2022/04/09 08:31:47;;;;;;;4.88;1.92;;;;;;;;;;5053308;28;20104;-69
2022/04/09 08:34:14;;;;;;;9.93;1.60;;;;;;;;;;5053587;28;20051;-69
2022/04/09 08:36:40;;;;;;;3.63;1.58;;;;;;;;;;5053554;28;20029;-72
2022/04/09 08:39:05;;;;;;;5.40;1.30;;;;;;;;;;5054211;28;20039;-70
2022/04/09 08:41:31;;;;;;;5.18;1.70;;;;;;;;;;5050939;28;20387;-74
2022/04/09 08:43:57;;;;;;;5.60;2.10;;;;;;;;;;5033424;28;20055;-74
2022/04/09 08:46:26;;;;;;;3.28;1.90;;;;;;;;;;5034415;28;20472;-74
2022/04/09 08:48:52;;;;;;;4.47;1.80;;;;;;;;;;5033469;28;20033;-72
2022/04/09 08:51:18;;;;;;;7.78;2.20;;;;;;;;;;5033573;28;20414;-75
2022/04/09 08:53:46;;;;;;;2.63;1.35;;;;;;;;;;5033099;28;20052;-72
2022/04/09 08:56:12;;;;;;;5.45;1.15;;;;;;;;;;5033625;28;20083;-69
2022/04/09 08:58:38;;;;;;;4.53;1.27;;;;;;;;;;5032902;28;20045;-68
2022/04/09 09:01:04;;;;;;;7.13;1.67;;;;;;;;;;5033527;28;20475;-66
2022/04/09 09:03:30;;;;;;;3.30;1.25;;;;;;;;;;5032762;28;20041;-67
2022/04/09 09:05:56;;;;;;;4.38;1.40;;;;;;;;;;5032897;28;20524;-68
2022/04/09 09:08:39;;;;;;;3.83;1.60;;;;;;;;;;5032230;28;20117;-67
2022/04/09 09:11:05;;;;;;;;;;;;;;;;;;5031144;28;20037;-66
2022/04/09 09:13:48;;;;;;;7.75;1.30;;;;;;;;;;5032970;28;20383;-68
2022/04/09 09:16:31;;;;;;;4.38;1.25;;;;;;;;;;5034149;28;20042;-68
2022/04/09 09:19:04;;;;;;;5.30;1.47;;;;;;;;;;5034473;28;20117;-67
2022/04/09 09:21:30;;;;;;;3.47;1.70;;;;;;;;;;5033667;28;20317;-71
2022/04/09 09:24:16;;;;;;;3.25;1.45;;;;;;;;;;5032561;28;20021;-69
2022/04/09 09:26:44;;;;;;;3.95;1.25;;;;;;;;;;5034087;28;20038;-74
2022/04/09 09:29:14;;;;;;;5.43;1.42;;;;;;;;;;5053211;28;20101;-73
2022/04/09 09:31:44;;;;;;;3.45;1.17;;;;;;;;;;5054097;28;20053;-73
2022/04/09 09:34:12;;;;;;;5.32;1.80;;;;;;;;;;5053383;28;20037;-71
2022/04/09 09:36:40;;;;;;;4.47;1.70;;;;;;;;;;5053965;28;20021;-68
2022/04/09 09:39:11;;;;;;;3.78;1.55;;;;;;;;;;5044770;28;20110;-67
2022/04/09 09:41:57;;;;;;;3.03;1.20;;;;;;;;;;5044536;28;20037;-69
2022/04/09 09:44:30;;;;;;;6.07;1.55;;;;;;;;;;5044953;28;20041;-68
2022/04/09 09:47:08;;;;;;;5.30;1.42;;;;;;;;;;5046231;28;20044;-68
2022/04/09 09:49:47;;;;;;;6.50;1.80;;;;;;;;;;5033324;28;20033;-68
2022/04/09 09:52:14;;;;;;;5.63;1.58;;;;;;;;;;5052112;28;20492;-67
2022/04/09 09:55:20;;;;;;;7.65;1.38;;;;;;;;;;5037199;28;20041;-68
2022/04/09 09:57:52;;;;;;;5.03;1.40;;;;;;;;;;5006433;28;20052;-70
2022/04/09 10:00:18;;;;;;;4.93;1.20;;;;;;;;;;5008928;28;20431;-70
2022/04/09 10:02:45;;;;;;;4.47;1.52;;;;;;;;;;5017368;28;20466;-75
2022/04/09 10:05:12;;;;;;;6.60;1.42;;;;;;;;;;5049938;28;20033;-72
2022/04/09 10:07:39;;;;;;;3.65;1.20;;;;;;;;;;5032310;28;20022;-68
2022/04/09 10:10:06;;;;;;;3.75;1.40;;;;;;;;;;5032494;28;20061;-73
2022/04/09 10:12:39;;;;;;;6.30;2.08;;;;;;;;;;5032908;28;20079;-71
2022/04/09 10:15:06;;;;;;;6.32;2.00;;;;;;;;;;5032960;28;20063;-71
2022/04/09 10:17:34;;;;;;;5.38;1.65;;;;;;;;;;5033305;28;20415;-69
2022/04/09 10:20:02;;;;;;;7.70;1.90;;;;;;;;;;5031708;28;20037;-75
2022/04/09 10:22:37;;;;;;;5.85;1.38;;;;;;;;;;5032947;28;20112;-72
2022/04/09 10:25:06;;;;;;;4.03;1.27;;;;;;;;;;5042189;28;20667;-73
2022/04/09 10:27:42;;;;;;;6.47;1.20;;;;;;;;;;5057403;28;20068;-68
2022/04/09 10:30:12;;;;;;;7.50;1.65;;;;;;;;;;5056203;28;20108;-71
2022/04/09 10:32:45;;;;;;;7.65;1.70;;;;;;;;;;5032278;28;20034;-68
2022/04/09 10:35:29;;;;;;;6.75;1.65;;;;;;;;;;5032003;28;20120;-74
2022/04/09 10:38:19;;;;;;;6.88;1.70;;;;;;;;;;5032318;28;20060;-72
2022/04/09 10:40:45;;;;;;;3.72;1.58;;;;;;;;;;5043414;28;20044;-67
2022/04/09 10:43:37;;;;;;;9.93;1.90;;;;;;;;;;5052184;28;20021;-66
2022/04/09 10:46:06;;;;;;;3.40;1.30;;;;;;;;;;5054063;28;20041;-67
2022/04/09 10:48:41;;;;;;;5.65;1.58;;;;;;;;;;5051814;28;20116;-67
2022/04/09 10:51:08;;;;;;;4.47;1.50;;;;;;;;;;5051970;28;20118;-68
2022/04/09 10:53:37;;;;;;;6.40;1.60;;;;;;;;;;5052170;28;20048;-67
2022/04/09 10:56:32;;;;;;;4.97;1.60;;;;;;;;;;5052188;28;20033;-66
2022/04/09 10:59:05;;;;;;;5.72;1.30;;;;;;;;;;5051990;28;20490;-68
2022/04/09 11:01:46;;;;;;;3.20;1.15;;;;;;;;;;5052229;28;20048;-66
2022/04/09 11:04:36;;;;;;;4.93;1.80;;;;;;;;;;5051779;28;20119;-66
2022/04/09 11:07:03;;;;;;;5.30;1.65;;;;;;;;;;5050622;28;20455;-67
2022/04/09 11:09:51;;;;;;;5.97;1.30;;;;;;;;;;5051000;28;20029;-68
2022/04/09 11:12:24;;;;;;;5.28;1.58;;;;;;;;;;5051784;28;20029;-67
2022/04/09 11:15:01;;;;;;;10.27;1.83;;;;;;;;;;5050890;28;20040;-68
2022/04/09 11:17:40;;;;;;;3.55;1.58;;;;;;;;;;5052010;28;20078;-70
2022/04/09 11:20:11;;;;;;;3.35;1.30;;;;;;;;;;5052113;28;20064;-66
2022/04/09 11:22:45;;;;;;;6.05;1.50;;;;;;;;;;5051588;28;20090;-68
2022/04/09 11:25:26;;;;;;;6.55;1.48;;;;;;;;;;5051381;28;20056;-70
2022/04/09 11:28:04;;;;;;;6.05;2.08;;;;;;;;;;5051295;28;20113;-71
2022/04/09 11:30:29;;;;;;;5.03;1.70;;;;;;;;;;5051576;28;20552;-73
2022/04/09 11:32:55;;;;;;;5.38;1.35;;;;;;;;;;5052015;28;20100;-71
2022/04/09 11:35:24;;;;;;;2.95;1.17;;;;;;;;;;5051533;28;20103;-67
2022/04/09 11:37:51;;;;;;;6.40;1.30;;;;;;;;;;5051592;28;20025;-73
2022/04/09 11:40:19;;;;;;;12.30;1.20;;;;;;;;;;5050277;28;20476;-69
2022/04/09 11:42:50;;;;;;;5.20;1.50;;;;;;;;;;5051628;28;20025;-67
2022/04/09 11:45:24;;;;;;;4.13;1.30;;;;;;;;;;5034165;28;20037;-67
2022/04/09 11:47:51;;;;;;;5.53;2.05;;;;;;;;;;5030109;28;20899;-70
2022/04/09 11:50:17;;;;;;;2.55;1.23;;;;;;;;;;5030246;28;20464;-75
2022/04/09 11:52:44;;;;;;;6.47;1.25;;;;;;;;;;5031751;28;20034;-67
2022/04/09 11:55:11;;;;;;;4.47;1.50;;;;;;;;;;5034371;28;20112;-66
2022/04/09 11:57:39;;;;;;;3.17;1.35;;;;;;;;;;5035322;28;20033;-73
2022/04/09 12:00:07;;;;;;;3.95;1.48;;;;;;;;;;5071532;28;20036;-67
2022/04/09 12:02:39;;;;;;;3.03;1.38;;;;;;;;;;5075815;28;20039;-69
2022/04/09 12:05:09;;;;;;;6.82;2.15;;;;;;;;;;5075798;28;20028;-71
2022/04/09 12:07:40;;;;;;;4.10;1.73;;;;;;;;;;5075393;28;20020;-68
2022/04/09 12:10:06;;;;;;;4.53;1.35;;;;;;;;;;5075617;28;20039;-69
2022/04/09 12:12:38;;;;;;;4.38;1.70;;;;;;;;;;5075901;28;20538;-69
2022/04/09 12:15:04;;;;;;;5.53;1.45;;;;;;;;;;5075529;28;20047;-69
2022/04/09 12:17:32;;;;;;;6.72;1.77;;;;;;;;;;5075508;28;20497;-66
2022/04/09 12:19:58;;;;;;;2.72;1.10;;;;;;;;;;5075270;28;20403;-71
2022/04/09 12:22:24;;;;;;;5.70;1.25;;;;;;;;;;5075372;28;20021;-73
2022/04/09 12:24:57;;;;;;;3.78;1.80;;;;;;;;;;5075617;28;20433;-68
2022/04/09 12:27:43;;;;;;;;;;;;;;;;;;5075888;28;20484;-69
2022/04/09 12:30:11;;;;;;;7.45;1.77;;;;;;;;;;5075129;28;19970;-70
2022/04/09 12:32:36;;;;;;;5.38;1.20;;;;;;;;;;5075068;28;20483;-69
2022/04/09 12:35:06;;;;;;;4.47;1.58;;;;;;;;;;5074675;28;20040;-68
2022/04/09 12:37:52;;;;;;;4.45;2.22;;;;;;;;;;5074649;28;20028;-70
2022/04/09 12:40:29;;;;;;;4.78;1.70;;;;;;;;;;5074960;28;20032;-68
2022/04/09 12:42:56;;;;;;;6.18;1.58;;;;;;;;;;5074954;28;20391;-68
2022/04/09 12:45:24;;;;;;;4.40;1.52;;;;;;;;;;5074788;28;20012;-68
2022/04/09 12:48:05;;;;;;;6.07;1.60;;;;;;;;;;5074791;28;20515;-68
2022/04/09 12:50:33;;;;;;;2.55;1.20;;;;;;;;;;5074553;28;20051;-74
2022/04/09 12:53:04;;;;;;;10.02;1.80;;;;;;;;;;5074314;28;20037;-69
2022/04/09 12:55:31;;;;;;;7.78;2.90;;;;;;;;;;5072678;28;20048;-68
2022/04/09 12:57:58;;;;;;;4.57;1.23;;;;;;;;;;5073095;28;20039;-73
2022/04/09 13:00:25;;;;;;;3.97;1.58;;;;;;;;;;5074520;28;20021;-69
2022/04/09 13:02:51;;;;;;;6.18;1.60;;;;;;;;;;5073760;28;20052;-71
2022/04/09 13:05:18;;;;;;;5.07;1.70;;;;;;;;;;5074038;28;20036;-66
2022/04/09 13:07:45;;;;;;;5.63;2.03;;;;;;;;;;5074379;28;20058;-67
2022/04/09 13:10:13;;;;;;;3.35;1.40;;;;;;;;;;5074351;28;20064;-71
2022/04/09 13:12:39;;;;;;;7.63;1.60;;;;;;;;;;5074701;28;20017;-74
2022/04/09 13:15:07;;;;;;;4.43;1.67;;;;;;;;;;5074489;28;20032;-70
2022/04/09 13:17:36;;;;;;;4.72;1.77;;;;;;;;;;5074453;28;20035;-71
2022/04/09 13:20:07;;;;;;;4.03;1.83;;;;;;;;;;5074354;28;20047;-76
2022/04/09 13:22:34;;;;;;;3.17;1.42;;;;;;;;;;5074186;28;20029;-69
2022/04/09 13:25:00;;;;;;;3.67;1.58;;;;;;;;;;5074186;28;20055;-71
2022/04/09 13:27:27;;;;;;;4.22;1.45;;;;;;;;;;5055883;28;20376;-68
2022/04/09 13:29:53;;;;;;;7.75;2.05;;;;;;;;;;5052867;28;20028;-67
2022/04/09 13:32:19;;;;;;;6.57;1.45;;;;;;;;;;5052986;28;20041;-68
2022/04/09 13:34:47;;;;;;;7.28;1.45;;;;;;;;;;5052947;28;20551;-69
2022/04/09 13:37:14;;;;;;;3.65;1.70;;;;;;;;;;5053006;28;20028;-71
2022/04/09 13:39:39;;;;;;;3.88;1.60;;;;;;;;;;5052932;28;20029;-73
2022/04/09 13:42:09;;;;;;;8.20;1.70;;;;;;;;;;5052838;28;20036;-67
2022/04/09 13:44:35;;;;;;;4.15;1.55;;;;;;;;;;5035311;28;20021;-72
2022/04/09 13:47:00;;;;;;;5.20;1.30;;;;;;;;;;5032276;28;20048;-70
2022/04/09 13:49:26;;;;;;;3.92;1.30;;;;;;;;;;5032685;28;20021;-70
2022/04/09 13:51:52;;;;;;;6.47;1.50;;;;;;;;;;5034061;28;20045;-67
2022/04/09 13:54:18;;;;;;;2.88;1.30;;;;;;;;;;5033595;28;20102;-68
2022/04/09 13:56:43;;;;;;;5.50;1.58;;;;;;;;;;5033631;28;20037;-71
2022/04/09 13:59:11;;;;;;;3.75;1.55;;;;;;;;;;5033841;28;20034;-68
2022/04/09 14:01:38;;;;;;;6.93;1.58;;;;;;;;;;5033649;28;20117;-72
2022/04/09 14:04:03;;;;;;;5.75;2.45;;;;;;;;;;5050090;28;20060;-66
2022/04/09 14:06:29;;;;;;;4.85;1.45;;;;;;;;;;5051812;28;20495;-66
2022/04/09 14:08:55;;;;;;;13.50;1.60;;;;;;;;;;5053294;28;20048;-67
2022/04/09 14:11:21;;;;;;;4.38;1.30;;;;;;;;;;5053046;28;20510;-70
2022/04/09 14:13:48;;;;;;;4.30;1.45;;;;;;;;;;5052975;28;20103;-65
2022/04/09 14:16:14;;;;;;;4.68;1.23;;;;;;;;;;5051855;28;20059;-68
2022/04/09 14:18:40;;;;;;;8.02;1.60;;;;;;;;;;5052680;28;20017;-67
2022/04/09 14:21:06;;;;;;;4.13;1.50;;;;;;;;;;5052707;28;20375;-68
2022/04/09 14:23:33;;;;;;;6.38;1.73;;;;;;;;;;5052718;28;20035;-68
2022/04/09 14:25:58;;;;;;;5.82;1.50;;;;;;;;;;5052646;28;20115;-66
2022/04/09 14:28:26;;;;;;;6.25;1.40;;;;;;;;;;5052829;28;20109;-66
2022/04/09 14:30:56;;;;;;;5.75;1.40;;;;;;;;;;5052827;28;20056;-65
2022/04/09 14:33:22;;;;;;;3.95;1.60;;;;;;;;;;5052460;28;20027;-67
2022/04/09 14:35:49;;;;;;;5.20;1.50;;;;;;;;;;5052215;28;20041;-67
2022/04/09 14:38:14;;;;;;;6.20;2.45;;;;;;;;;;5052287;28;20553;-67
2022/04/09 14:40:40;;;;;;;7.40;1.90;;;;;;;;;;5052524;28;20108;-67
2022/04/09 14:43:06;;;;;;;5.50;1.70;;;;;;;;;;5052544;28;20024;-67
2022/04/09 14:45:32;;;;;;;9.10;2.00;;;;;;;;;;5052357;28;20053;-67
2022/04/09 14:47:58;;;;;;;5.53;1.92;;;;;;;;;;5052255;28;20419;-66
2022/04/09 14:50:24;;;;;;;5.03;1.60;;;;;;;;;;5052183;28;20423;-69
2022/04/09 14:52:49;;;;;;;8.23;1.95;;;;;;;;;;5051959;28;20021;-67